createdAt,value
2019-04-30T00:00:15.820Z,10.10
2019-04-30T00:01:18.730Z,10.16
2019-04-30T00:02:15.931Z,10.17
2019-04-30T00:03:19.325Z,10.10
2019-04-30T00:04:15.746Z,10.13
2019-04-30T00:05:18.777Z,10.17
2019-04-30T00:06:15.707Z,10.17
2019-04-30T00:07:18.933Z,10.14
2019-04-30T00:08:16.074Z,10.20
2019-04-30T00:09:18.890Z,10.22
2019-04-30T00:10:15.471Z,10.25
2019-04-30T00:11:15.948Z,10.18
2019-04-30T00:12:15.690Z,10.25
2019-04-30T00:13:20.581Z,10.32
2019-04-30T00:14:15.327Z,10.28
2019-04-30T00:15:16.125Z,10.25
2019-04-30T00:16:15.403Z,10.26
2019-04-30T00:17:19.267Z,10.17
2019-04-30T00:18:15.523Z,10.13
2019-04-30T00:19:19.187Z,10.22
2019-04-30T00:20:15.123Z,10.17
2019-04-30T00:21:18.573Z,10.17
2019-04-30T00:22:15.826Z,10.17
2019-04-30T00:23:17.748Z,9.99
2019-04-30T00:24:15.885Z,9.99
2019-04-30T00:25:15.324Z,10.02
2019-04-30T00:26:16.977Z,10.09
2019-04-30T00:27:15.153Z,9.99
2019-04-30T00:28:15.529Z,10.11
2019-04-30T00:29:19.181Z,10.07
2019-04-30T00:30:15.455Z,10.01
2019-04-30T00:31:17.606Z,10.02
2019-04-30T00:32:15.959Z,10.04
2019-04-30T00:33:21.964Z,10.14
2019-04-30T00:34:15.143Z,10.10
2019-04-30T00:35:16.215Z,10.11
2019-04-30T00:36:17.210Z,10.14
2019-04-30T00:37:18.650Z,10.17
2019-04-30T00:38:15.252Z,10.14
2019-04-30T00:39:16.607Z,10.14
2019-04-30T00:40:15.401Z,10.16
2019-04-30T00:41:15.533Z,10.14
2019-04-30T00:42:18.691Z,10.13
2019-04-30T00:43:15.564Z,10.20
2019-04-30T00:44:15.149Z,10.20
2019-04-30T00:45:15.458Z,10.13
2019-04-30T00:46:17.288Z,10.18
2019-04-30T00:47:15.433Z,10.16
2019-04-30T00:48:19.741Z,10.20
2019-04-30T00:49:18.563Z,10.25
2019-04-30T00:50:15.179Z,10.20
2019-04-30T00:51:21.080Z,10.22
2019-04-30T00:52:15.363Z,10.25
2019-04-30T00:53:16.526Z,10.17
2019-04-30T00:54:15.276Z,10.24
2019-04-30T00:55:15.015Z,10.17
2019-04-30T00:56:15.784Z,10.17
2019-04-30T00:57:15.180Z,10.11
2019-04-30T00:58:17.685Z,10.13
2019-04-30T00:59:15.107Z,10.17
2019-04-30T01:00:19.665Z,10.17
2019-04-30T01:01:15.267Z,10.13
2019-04-30T01:02:20.196Z,10.16
2019-04-30T01:03:15.410Z,10.16
2019-04-30T01:05:25.464Z,10.17
2019-04-30T01:06:28.523Z,10.16
2019-04-30T01:07:26.511Z,10.16
2019-04-30T01:08:27.590Z,10.04
2019-04-30T01:09:25.664Z,9.96
2019-04-30T01:10:28.230Z,9.99
2019-04-30T01:11:25.378Z,9.95
2019-04-30T01:12:29.017Z,9.98
2019-04-30T01:13:24.547Z,9.88
2019-04-30T01:14:28.301Z,9.78
2019-04-30T01:15:24.528Z,9.75
2019-04-30T01:16:30.186Z,9.77
2019-04-30T01:17:24.491Z,9.78
2019-04-30T01:18:28.522Z,9.75
2019-04-30T01:19:30.151Z,9.65
2019-04-30T01:20:30.971Z,9.67
2019-04-30T01:21:24.471Z,9.73
2019-04-30T01:22:28.421Z,9.70
2019-04-30T01:23:24.439Z,9.65
2019-04-30T01:24:28.399Z,9.63
2019-04-30T01:25:24.415Z,9.59
2019-04-30T01:26:29.631Z,9.67
2019-04-30T01:27:24.381Z,9.55
2019-04-30T01:28:24.466Z,9.59
2019-04-30T01:29:24.360Z,9.62
2019-04-30T01:30:24.356Z,9.60
2019-04-30T01:31:24.355Z,9.56
2019-04-30T01:32:24.348Z,9.52
2019-04-30T01:33:28.360Z,9.53
2019-04-30T01:34:24.299Z,9.44
2019-04-30T01:35:29.054Z,9.48
2019-04-30T01:36:24.283Z,9.42
2019-04-30T01:37:28.443Z,9.35
2019-04-30T01:38:24.256Z,9.27
2019-04-30T01:39:30.031Z,9.31
2019-04-30T01:40:24.229Z,9.38
2019-04-30T01:41:27.485Z,9.30
2019-04-30T01:42:24.224Z,9.31
2019-04-30T01:43:31.436Z,9.23
2019-04-30T01:44:24.194Z,9.22
2019-04-30T01:45:28.194Z,9.08
2019-04-30T01:46:24.196Z,9.22
2019-04-30T01:47:27.793Z,9.20
2019-04-30T01:48:24.155Z,9.22
2019-04-30T01:49:25.612Z,9.10
2019-04-30T01:50:24.140Z,9.10
2019-04-30T01:51:24.156Z,9.06
2019-04-30T01:52:24.099Z,9.10
2019-04-30T01:53:24.109Z,9.04
2019-04-30T01:54:24.491Z,9.01
2019-04-30T01:55:24.087Z,9.00
2019-04-30T01:56:24.086Z,8.93
2019-04-30T01:57:24.051Z,8.91
2019-04-30T01:58:24.040Z,8.91
2019-04-30T01:59:24.036Z,8.85
2019-04-30T02:00:24.047Z,8.85
2019-04-30T02:01:24.031Z,8.75
2019-04-30T02:02:23.999Z,8.78
2019-04-30T02:03:23.996Z,8.67
2019-04-30T02:04:23.988Z,8.71
2019-04-30T02:05:23.970Z,8.71
2019-04-30T02:06:23.969Z,8.78
2019-04-30T02:07:23.941Z,8.65
2019-04-30T02:08:23.927Z,8.73
2019-04-30T02:09:23.929Z,8.61
2019-04-30T02:10:23.920Z,8.67
2019-04-30T02:11:23.924Z,8.60
2019-04-30T02:12:23.889Z,8.61
2019-04-30T02:13:23.874Z,8.65
2019-04-30T02:14:23.995Z,8.64
2019-04-30T02:15:23.852Z,8.64
2019-04-30T02:16:23.876Z,8.64
2019-04-30T02:17:23.847Z,8.65
2019-04-30T02:18:23.814Z,8.61
2019-04-30T02:19:23.803Z,8.80
2019-04-30T02:20:23.790Z,8.85
2019-04-30T02:21:23.810Z,8.80
2019-04-30T02:22:23.775Z,8.79
2019-04-30T02:23:23.777Z,8.78
2019-04-30T02:24:23.737Z,8.73
2019-04-30T02:25:23.762Z,8.83
2019-04-30T02:26:23.745Z,8.89
2019-04-30T02:27:23.704Z,8.89
2019-04-30T02:28:23.706Z,8.89
2019-04-30T02:29:23.691Z,8.88
2019-04-30T02:30:23.683Z,8.91
2019-04-30T02:31:23.691Z,8.89
2019-04-30T02:32:23.684Z,8.91
2019-04-30T02:33:23.643Z,8.94
2019-04-30T02:34:23.639Z,8.96
2019-04-30T02:35:23.627Z,8.93
2019-04-30T02:36:23.640Z,8.96
2019-04-30T02:37:23.627Z,8.94
2019-04-30T02:38:23.599Z,8.89
2019-04-30T02:39:23.569Z,8.93
2019-04-30T02:40:23.570Z,8.91
2019-04-30T02:41:23.581Z,8.93
2019-04-30T02:42:23.542Z,8.91
2019-04-30T02:43:23.539Z,8.85
2019-04-30T02:44:23.527Z,8.86
2019-04-30T02:45:23.533Z,8.89
2019-04-30T02:46:23.530Z,8.79
2019-04-30T02:47:23.492Z,8.82
2019-04-30T02:48:23.491Z,8.79
2019-04-30T02:49:23.480Z,8.78
2019-04-30T02:50:23.465Z,8.83
2019-04-30T02:51:23.474Z,8.83
2019-04-30T02:52:23.459Z,8.68
2019-04-30T02:53:23.425Z,8.63
2019-04-30T02:54:24.509Z,8.75
2019-04-30T02:55:23.405Z,8.61
2019-04-30T02:56:26.543Z,8.67
2019-04-30T02:57:23.683Z,8.57
2019-04-30T02:58:23.394Z,8.47
2019-04-30T02:59:23.359Z,8.46
2019-04-30T03:00:23.341Z,8.46
2019-04-30T03:01:23.463Z,8.49
2019-04-30T03:02:23.322Z,8.43
2019-04-30T03:03:25.217Z,8.42
2019-04-30T03:04:23.302Z,8.40
2019-04-30T03:06:32.783Z,8.32
2019-04-30T03:07:33.761Z,8.40
2019-04-30T03:08:33.746Z,8.32
2019-04-30T03:09:33.731Z,8.34
2019-04-30T03:10:33.712Z,8.34
2019-04-30T03:11:33.731Z,8.27
2019-04-30T03:12:34.128Z,8.34
2019-04-30T03:13:33.695Z,8.18
2019-04-30T03:14:33.685Z,8.14
2019-04-30T03:15:33.679Z,8.10
2019-04-30T03:16:33.691Z,8.14
2019-04-30T03:17:33.642Z,8.21
2019-04-30T03:18:33.629Z,8.24
2019-04-30T03:19:33.624Z,8.29
2019-04-30T03:20:36.445Z,8.34
2019-04-30T03:21:33.623Z,8.42
2019-04-30T03:22:33.620Z,8.42
2019-04-30T03:23:33.584Z,8.39
2019-04-30T03:24:33.569Z,8.40
2019-04-30T03:25:33.557Z,8.42
2019-04-30T03:26:33.577Z,8.39
2019-04-30T03:27:33.541Z,8.37
2019-04-30T03:28:33.536Z,8.40
2019-04-30T03:29:33.519Z,8.46
2019-04-30T03:30:33.497Z,8.47
2019-04-30T03:31:33.510Z,8.46
2019-04-30T03:32:36.704Z,8.55
2019-04-30T03:33:33.469Z,8.47
2019-04-30T03:34:33.598Z,8.60
2019-04-30T03:35:33.443Z,8.55
2019-04-30T03:36:33.457Z,8.68
2019-04-30T03:37:33.446Z,8.64
2019-04-30T03:38:33.418Z,8.63
2019-04-30T03:39:34.115Z,8.68
2019-04-30T03:40:33.388Z,8.68
2019-04-30T03:41:33.585Z,8.71
2019-04-30T03:42:33.390Z,8.67
2019-04-30T03:43:33.381Z,8.67
2019-04-30T03:44:33.364Z,8.64
2019-04-30T03:45:33.354Z,8.58
2019-04-30T03:46:33.324Z,8.61
2019-04-30T03:47:33.349Z,8.64
2019-04-30T03:48:33.303Z,8.76
2019-04-30T03:49:33.293Z,8.73
2019-04-30T03:50:49.325Z,8.70
2019-04-30T03:51:33.269Z,8.71
2019-04-30T03:52:33.306Z,8.82
2019-04-30T03:53:33.251Z,8.80
2019-04-30T03:54:33.231Z,8.86
2019-04-30T03:55:33.223Z,8.78
2019-04-30T03:56:33.219Z,8.80
2019-04-30T03:57:33.220Z,8.80
2019-04-30T03:58:33.185Z,8.78
2019-04-30T03:59:33.179Z,8.85
2019-04-30T04:00:33.174Z,8.82
2019-04-30T04:01:33.170Z,8.73
2019-04-30T04:02:33.257Z,8.82
2019-04-30T04:03:33.133Z,8.91
2019-04-30T04:04:33.132Z,8.85
2019-04-30T04:05:33.134Z,8.89
2019-04-30T04:06:33.101Z,8.86
2019-04-30T04:07:33.128Z,8.85
2019-04-30T04:08:33.085Z,8.85
2019-04-30T04:09:33.089Z,8.83
2019-04-30T04:10:33.070Z,8.83
2019-04-30T04:11:33.067Z,8.86
2019-04-30T04:12:33.072Z,8.86
2019-04-30T04:13:33.258Z,8.89
2019-04-30T04:14:33.024Z,8.88
2019-04-30T04:15:33.005Z,8.85
2019-04-30T04:16:33.001Z,8.89
2019-04-30T04:17:33.000Z,8.86
2019-04-30T04:18:32.976Z,8.86
2019-04-30T04:19:32.987Z,8.80
2019-04-30T04:20:32.967Z,8.79
2019-04-30T04:21:32.951Z,8.85
2019-04-30T04:22:32.947Z,8.80
2019-04-30T04:23:33.050Z,8.78
2019-04-30T04:24:32.910Z,8.79
2019-04-30T04:25:32.915Z,8.82
2019-04-30T04:26:32.914Z,8.80
2019-04-30T04:27:32.907Z,8.79
2019-04-30T04:28:32.880Z,8.79
2019-04-30T04:29:32.846Z,8.82
2019-04-30T04:30:32.879Z,8.79
2019-04-30T04:31:32.839Z,8.80
2019-04-30T04:32:32.836Z,8.73
2019-04-30T04:33:32.839Z,8.76
2019-04-30T04:34:32.806Z,8.76
2019-04-30T04:35:32.783Z,8.65
2019-04-30T04:36:32.769Z,8.68
2019-04-30T04:37:32.768Z,8.71
2019-04-30T04:38:32.781Z,8.63
2019-04-30T04:39:32.749Z,8.61
2019-04-30T04:40:32.741Z,8.67
2019-04-30T04:41:32.729Z,8.50
2019-04-30T04:42:33.206Z,8.54
2019-04-30T04:43:32.723Z,8.57
2019-04-30T04:44:32.696Z,8.50
2019-04-30T04:45:32.685Z,8.49
2019-04-30T04:46:32.674Z,8.47
2019-04-30T04:47:32.651Z,8.52
2019-04-30T04:48:32.689Z,8.55
2019-04-30T04:49:32.636Z,8.57
2019-04-30T04:50:32.620Z,8.63
2019-04-30T04:51:38.677Z,8.61
2019-04-30T04:52:32.613Z,8.65
2019-04-30T04:53:32.627Z,8.65
2019-04-30T04:54:32.589Z,8.63
2019-04-30T04:55:32.579Z,8.63
2019-04-30T04:56:32.576Z,8.63
2019-04-30T04:57:32.586Z,8.76
2019-04-30T04:58:32.571Z,8.78
2019-04-30T04:59:32.541Z,8.85
2019-04-30T05:00:32.524Z,8.86
2019-04-30T05:01:32.514Z,8.85
2019-04-30T05:02:32.939Z,9.00
2019-04-30T05:03:32.491Z,8.94
2019-04-30T05:04:32.471Z,8.88
2019-04-30T05:05:32.467Z,8.86
2019-04-30T05:07:41.647Z,8.93
2019-04-30T05:08:42.635Z,8.97
2019-04-30T05:09:42.612Z,8.94
2019-04-30T05:10:42.618Z,8.98
2019-04-30T05:11:42.612Z,8.98
2019-04-30T05:12:42.582Z,8.97
2019-04-30T05:13:42.595Z,9.01
2019-04-30T05:14:42.563Z,9.01
2019-04-30T05:15:42.543Z,9.00
2019-04-30T05:16:42.558Z,9.01
2019-04-30T05:17:42.530Z,9.10
2019-04-30T05:18:42.546Z,9.08
2019-04-30T05:19:42.537Z,9.06
2019-04-30T05:20:42.510Z,9.15
2019-04-30T05:21:44.736Z,9.22
2019-04-30T05:22:42.468Z,9.23
2019-04-30T05:23:42.780Z,9.19
2019-04-30T05:24:42.476Z,9.19
2019-04-30T05:25:42.436Z,9.20
2019-04-30T05:26:42.426Z,9.08
2019-04-30T05:27:42.414Z,9.04
2019-04-30T05:28:42.407Z,9.15
2019-04-30T05:29:42.429Z,9.15
2019-04-30T05:30:42.380Z,9.22
2019-04-30T05:31:42.370Z,9.12
2019-04-30T05:32:42.371Z,9.06
2019-04-30T05:33:42.353Z,9.13
2019-04-30T05:34:42.366Z,9.10
2019-04-30T05:35:42.324Z,9.15
2019-04-30T05:36:42.324Z,9.06
2019-04-30T05:37:42.312Z,9.16
2019-04-30T05:38:42.303Z,9.22
2019-04-30T05:39:42.297Z,8.96
2019-04-30T05:40:42.673Z,9.08
2019-04-30T05:41:42.279Z,9.06
2019-04-30T05:42:42.264Z,9.17
2019-04-30T05:43:42.237Z,9.10
2019-04-30T05:44:42.247Z,9.12
2019-04-30T05:45:42.222Z,9.06
2019-04-30T05:46:42.203Z,9.06
2019-04-30T05:47:42.231Z,9.10
2019-04-30T05:48:42.188Z,9.13
2019-04-30T05:49:42.556Z,9.20
2019-04-30T05:50:42.167Z,9.20
2019-04-30T05:51:52.845Z,9.23
2019-04-30T05:52:42.482Z,9.23
2019-04-30T05:53:42.151Z,9.15
2019-04-30T05:54:42.127Z,9.13
2019-04-30T05:55:42.107Z,9.26
2019-04-30T05:56:42.797Z,9.27
2019-04-30T05:57:52.988Z,9.40
2019-04-30T05:58:42.109Z,9.30
2019-04-30T05:59:42.915Z,9.38
2019-04-30T06:00:42.059Z,9.23
2019-04-30T06:01:48.088Z,9.26
2019-04-30T06:02:42.039Z,9.23
2019-04-30T06:03:42.031Z,9.19
2019-04-30T06:04:42.045Z,9.10
2019-04-30T06:05:42.022Z,9.08
2019-04-30T06:06:41.993Z,9.22
2019-04-30T06:07:42.055Z,9.26
2019-04-30T06:08:42.039Z,9.24
2019-04-30T06:09:41.972Z,9.27
2019-04-30T06:10:41.973Z,9.32
2019-04-30T06:11:41.935Z,9.27
2019-04-30T06:12:41.916Z,9.23
2019-04-30T06:13:41.916Z,9.20
2019-04-30T06:14:48.934Z,9.30
2019-04-30T06:15:41.948Z,9.08
2019-04-30T06:16:41.871Z,9.23
2019-04-30T06:17:41.872Z,9.08
2019-04-30T06:18:42.336Z,9.17
2019-04-30T06:19:41.851Z,9.20
2019-04-30T06:20:41.886Z,9.22
2019-04-30T06:21:41.837Z,9.34
2019-04-30T06:22:41.817Z,9.31
2019-04-30T06:23:41.811Z,9.26
2019-04-30T06:24:41.804Z,9.23
2019-04-30T06:25:56.106Z,9.20
2019-04-30T06:26:41.769Z,9.32
2019-04-30T06:27:41.872Z,9.41
2019-04-30T06:28:41.827Z,9.45
2019-04-30T06:29:41.725Z,9.52
2019-04-30T06:30:41.732Z,9.55
2019-04-30T06:31:43.236Z,9.62
2019-04-30T06:32:41.753Z,9.63
2019-04-30T06:33:41.698Z,9.71
2019-04-30T06:34:42.109Z,9.68
2019-04-30T06:35:41.678Z,9.67
2019-04-30T06:36:51.114Z,9.70
2019-04-30T06:37:41.657Z,9.85
2019-04-30T06:38:41.648Z,9.95
2019-04-30T06:39:41.632Z,10.07
2019-04-30T06:40:41.637Z,9.99
2019-04-30T06:41:41.601Z,9.95
2019-04-30T06:42:41.598Z,9.77
2019-04-30T06:43:41.597Z,9.88
2019-04-30T06:44:42.001Z,9.80
2019-04-30T06:45:41.597Z,9.75
2019-04-30T06:46:41.577Z,9.68
2019-04-30T06:47:41.540Z,9.62
2019-04-30T06:48:41.946Z,9.59
2019-04-30T06:49:41.528Z,9.42
2019-04-30T06:50:41.521Z,9.44
2019-04-30T06:51:41.513Z,9.52
2019-04-30T06:52:41.473Z,9.75
2019-04-30T06:53:41.465Z,9.71
2019-04-30T06:54:41.466Z,9.85
2019-04-30T06:55:42.455Z,9.96
2019-04-30T06:56:41.444Z,10.06
2019-04-30T06:57:41.419Z,10.24
2019-04-30T06:58:41.501Z,10.26
2019-04-30T06:59:41.481Z,10.36
2019-04-30T07:00:41.408Z,10.46
2019-04-30T07:01:41.482Z,10.57
2019-04-30T07:02:41.406Z,10.60
2019-04-30T07:03:41.346Z,10.60
2019-04-30T07:04:41.346Z,10.46
2019-04-30T07:05:41.697Z,10.60
2019-04-30T07:06:45.083Z,10.65
2019-04-30T07:08:55.519Z,10.66
2019-04-30T07:09:55.836Z,10.83
2019-04-30T07:10:55.624Z,10.90
2019-04-30T07:11:51.041Z,10.81
2019-04-30T07:12:50.973Z,10.91
2019-04-30T07:13:52.189Z,10.76
2019-04-30T07:14:50.968Z,10.86
2019-04-30T07:15:50.948Z,10.91
2019-04-30T07:16:50.965Z,10.68
2019-04-30T07:17:50.949Z,10.49
2019-04-30T07:18:50.930Z,10.58
2019-04-30T07:20:50.886Z,10.76
2019-04-30T07:21:50.894Z,10.81
2019-04-30T07:22:59.087Z,10.84
2019-04-30T07:23:50.849Z,10.98
2019-04-30T07:24:50.849Z,11.13
2019-04-30T07:25:51.783Z,11.08
2019-04-30T07:26:54.847Z,11.08
2019-04-30T07:27:50.813Z,11.41
2019-04-30T07:28:54.771Z,11.57
2019-04-30T07:29:50.782Z,11.63
2019-04-30T07:31:07.187Z,11.75
2019-04-30T07:31:51.710Z,11.84
2019-04-30T07:32:50.753Z,11.84
2019-04-30T07:33:53.739Z,11.81
2019-04-30T07:34:50.740Z,12.00
2019-04-30T07:35:50.744Z,11.97
2019-04-30T07:37:10.433Z,11.85
2019-04-30T07:37:54.666Z,11.97
2019-04-30T07:38:56.167Z,11.88
2019-04-30T07:39:50.683Z,11.93
2019-04-30T07:40:50.719Z,11.94
2019-04-30T07:41:50.670Z,12.08
2019-04-30T07:42:50.650Z,12.13
2019-04-30T07:43:50.634Z,11.63
2019-04-30T07:44:50.625Z,11.69
2019-04-30T07:45:50.621Z,11.46
2019-04-30T07:46:50.634Z,11.27
2019-04-30T07:47:50.721Z,10.78
2019-04-30T07:48:50.883Z,10.81
2019-04-30T07:49:55.197Z,10.90
2019-04-30T07:50:52.099Z,10.94
2019-04-30T07:51:52.235Z,10.98
2019-04-30T07:53:01.698Z,11.03
2019-04-30T07:53:50.521Z,11.13
2019-04-30T07:54:51.833Z,11.23
2019-04-30T07:55:50.537Z,11.26
2019-04-30T07:56:50.854Z,11.46
2019-04-30T07:57:50.858Z,11.72
2019-04-30T07:58:50.703Z,11.53
2019-04-30T07:59:50.458Z,11.60
2019-04-30T08:00:56.009Z,11.64
2019-04-30T08:02:06.564Z,11.85
2019-04-30T08:02:50.621Z,12.11
2019-04-30T08:03:50.809Z,12.22
2019-04-30T08:04:51.124Z,12.08
2019-04-30T08:05:50.442Z,11.70
2019-04-30T08:06:50.475Z,11.38
2019-04-30T08:07:50.391Z,10.81
2019-04-30T08:08:51.813Z,10.76
2019-04-30T08:09:35.733Z,10.69
2019-04-30T08:09:50.344Z,10.94
2019-04-30T08:10:50.986Z,10.99
2019-04-30T08:11:50.336Z,11.06
2019-04-30T08:12:51.178Z,11.03
2019-04-30T08:13:50.853Z,11.23
2019-04-30T08:14:50.338Z,11.56
2019-04-30T08:15:50.289Z,11.78
2019-04-30T08:16:51.141Z,11.78
2019-04-30T08:18:02.688Z,11.87
2019-04-30T08:18:50.248Z,12.00
2019-04-30T08:19:50.297Z,12.01
2019-04-30T08:20:50.247Z,11.98
2019-04-30T08:21:50.213Z,12.23
2019-04-30T08:22:50.227Z,12.46
2019-04-30T08:23:50.194Z,12.52
2019-04-30T08:24:50.205Z,12.61
2019-04-30T08:25:50.243Z,12.63
2019-04-30T08:26:50.230Z,12.69
2019-04-30T08:27:50.680Z,12.37
2019-04-30T08:28:50.154Z,12.36
2019-04-30T08:29:50.660Z,12.29
2019-04-30T08:30:50.122Z,12.38
2019-04-30T08:31:50.088Z,12.37
2019-04-30T08:32:50.246Z,12.55
2019-04-30T08:33:50.191Z,12.49
2019-04-30T08:34:50.265Z,12.43
2019-04-30T08:35:50.173Z,12.36
2019-04-30T08:36:51.507Z,12.23
2019-04-30T08:37:50.308Z,12.01
2019-04-30T08:38:50.035Z,11.97
2019-04-30T08:39:50.077Z,12.15
2019-04-30T08:40:57.050Z,11.70
2019-04-30T08:41:49.990Z,11.74
2019-04-30T08:42:50.021Z,11.84
2019-04-30T08:43:49.977Z,12.22
2019-04-30T08:44:49.964Z,12.25
2019-04-30T08:45:49.956Z,12.44
2019-04-30T08:46:49.964Z,12.23
2019-04-30T08:47:50.016Z,11.53
2019-04-30T08:48:51.769Z,11.45
2019-04-30T08:49:50.422Z,11.57
2019-04-30T08:50:50.320Z,12.03
2019-04-30T08:51:50.278Z,12.38
2019-04-30T08:52:50.359Z,12.69
2019-04-30T08:53:49.979Z,12.84
2019-04-30T08:54:49.848Z,12.91
2019-04-30T08:55:49.833Z,13.07
2019-04-30T08:56:50.371Z,12.95
2019-04-30T08:57:50.138Z,12.88
2019-04-30T08:58:49.837Z,13.13
2019-04-30T08:59:49.794Z,13.32
2019-04-30T09:00:49.774Z,13.46
2019-04-30T09:01:49.784Z,13.50
2019-04-30T09:02:49.757Z,13.54
2019-04-30T09:03:51.309Z,13.84
2019-04-30T09:04:49.781Z,14.01
2019-04-30T09:05:49.993Z,13.98
2019-04-30T09:06:49.824Z,13.83
2019-04-30T09:07:49.705Z,12.87
2019-04-30T09:10:01.285Z,12.89
2019-04-30T09:11:00.282Z,13.12
2019-04-30T09:12:00.228Z,13.09
2019-04-30T09:13:00.189Z,12.94
2019-04-30T09:14:00.191Z,12.87
2019-04-30T09:15:00.137Z,13.03
2019-04-30T09:16:00.146Z,13.46
2019-04-30T09:17:00.114Z,13.68
2019-04-30T09:18:05.882Z,13.86
2019-04-30T09:19:00.116Z,14.01
2019-04-30T09:20:00.080Z,14.19
2019-04-30T09:21:06.107Z,14.13
2019-04-30T09:22:00.062Z,13.48
2019-04-30T09:23:00.059Z,13.31
2019-04-30T09:24:00.074Z,13.21
2019-04-30T09:25:00.048Z,13.39
2019-04-30T09:26:00.028Z,13.36
2019-04-30T09:27:00.019Z,13.25
2019-04-30T09:28:00.002Z,13.43
2019-04-30T09:29:00.101Z,13.61
2019-04-30T09:30:00.124Z,13.87
2019-04-30T09:30:59.971Z,13.90
2019-04-30T09:31:59.954Z,14.02
2019-04-30T09:32:59.964Z,14.17
2019-04-30T09:34:00.887Z,14.23
2019-04-30T09:34:59.988Z,14.20
2019-04-30T09:35:59.916Z,14.20
2019-04-30T09:36:59.942Z,14.02
2019-04-30T09:38:01.981Z,13.86
2019-04-30T09:39:01.564Z,13.84
2019-04-30T09:39:59.952Z,13.72
2019-04-30T09:41:00.172Z,13.84
2019-04-30T09:42:00.065Z,13.90
2019-04-30T09:43:00.442Z,14.05
2019-04-30T09:43:59.868Z,14.04
2019-04-30T09:44:59.864Z,14.26
2019-04-30T09:45:59.812Z,14.42
2019-04-30T09:46:59.938Z,14.26
2019-04-30T09:47:59.802Z,14.30
2019-04-30T09:48:59.957Z,14.30
2019-04-30T09:49:59.811Z,14.49
2019-04-30T09:51:00.783Z,14.61
2019-04-30T09:51:59.987Z,14.83
2019-04-30T09:53:00.595Z,15.00
2019-04-30T09:54:03.141Z,15.15
2019-04-30T09:54:59.973Z,15.28
2019-04-30T09:55:59.786Z,15.25
2019-04-30T09:56:59.686Z,15.13
2019-04-30T09:57:59.661Z,14.91
2019-04-30T09:58:59.686Z,14.83
2019-04-30T10:00:00.589Z,14.87
2019-04-30T10:00:59.648Z,14.95
2019-04-30T10:01:59.623Z,15.09
2019-04-30T10:03:00.400Z,14.97
2019-04-30T10:04:00.456Z,15.16
2019-04-30T10:05:00.136Z,15.23
2019-04-30T10:05:59.576Z,15.16
2019-04-30T10:06:59.699Z,15.20
2019-04-30T10:07:59.568Z,14.91
2019-04-30T10:08:59.770Z,14.80
2019-04-30T10:09:59.571Z,14.86
2019-04-30T10:10:59.514Z,15.04
2019-04-30T10:12:00.567Z,15.18
2019-04-30T10:12:59.500Z,15.31
2019-04-30T10:13:59.508Z,14.98
2019-04-30T10:15:00.507Z,14.85
2019-04-30T10:15:59.463Z,14.59
2019-04-30T10:16:59.610Z,14.67
2019-04-30T10:17:59.471Z,14.35
2019-04-30T10:19:01.346Z,14.35
2019-04-30T10:19:59.445Z,14.53
2019-04-30T10:21:00.929Z,14.56
2019-04-30T10:21:59.407Z,14.85
2019-04-30T10:22:59.659Z,14.87
2019-04-30T10:24:12.343Z,15.12
2019-04-30T10:24:59.743Z,15.33
2019-04-30T10:25:59.358Z,15.35
2019-04-30T10:26:59.375Z,15.00
2019-04-30T10:27:59.806Z,14.85
2019-04-30T10:28:59.346Z,14.95
2019-04-30T10:29:59.486Z,14.85
2019-04-30T10:30:59.418Z,15.20
2019-04-30T10:31:59.301Z,15.41
2019-04-30T10:32:59.627Z,15.40
2019-04-30T10:33:59.279Z,15.49
2019-04-30T10:34:59.272Z,15.66
2019-04-30T10:36:03.225Z,15.92
2019-04-30T10:37:02.625Z,16.18
2019-04-30T10:37:59.621Z,15.91
2019-04-30T10:39:01.272Z,15.86
2019-04-30T10:39:59.959Z,15.85
2019-04-30T10:41:00.771Z,15.76
2019-04-30T10:41:59.192Z,15.84
2019-04-30T10:42:59.180Z,15.78
2019-04-30T10:43:59.260Z,15.86
2019-04-30T10:45:00.311Z,15.64
2019-04-30T10:45:59.183Z,15.81
2019-04-30T10:46:59.418Z,15.86
2019-04-30T10:47:59.317Z,16.07
2019-04-30T10:48:59.296Z,15.88
2019-04-30T10:49:59.125Z,16.07
2019-04-30T10:50:59.327Z,15.92
2019-04-30T10:52:01.078Z,16.11
2019-04-30T10:52:59.209Z,16.40
2019-04-30T10:53:59.280Z,16.70
2019-04-30T10:54:59.608Z,16.82
2019-04-30T10:55:59.475Z,16.69
2019-04-30T10:56:59.301Z,16.50
2019-04-30T10:57:59.343Z,16.47
2019-04-30T10:58:59.045Z,15.92
2019-04-30T10:59:59.059Z,15.92
2019-04-30T11:00:59.489Z,16.04
2019-04-30T11:01:59.259Z,16.04
2019-04-30T11:02:59.351Z,15.93
2019-04-30T11:03:58.966Z,16.17
2019-04-30T11:04:58.950Z,16.10
2019-04-30T11:05:58.953Z,16.42
2019-04-30T11:07:00.553Z,16.59
2019-04-30T11:07:59.375Z,16.63
2019-04-30T11:08:58.900Z,16.67
2019-04-30T11:11:40.582Z,17.22
2019-04-30T11:12:41.532Z,17.21
2019-04-30T11:13:41.517Z,17.24
2019-04-30T11:14:41.517Z,17.27
2019-04-30T11:15:41.549Z,17.15
2019-04-30T11:16:41.488Z,17.18
2019-04-30T11:17:41.697Z,17.39
2019-04-30T11:18:41.639Z,17.57
2019-04-30T11:19:41.704Z,17.71
2019-04-30T11:20:41.718Z,17.46
2019-04-30T11:21:41.641Z,17.17
2019-04-30T11:22:42.670Z,16.99
2019-04-30T11:23:41.603Z,16.98
2019-04-30T11:24:56.462Z,17.07
2019-04-30T11:25:42.479Z,17.32
2019-04-30T11:26:42.181Z,17.54
2019-04-30T11:27:42.172Z,17.49
2019-04-30T11:28:41.480Z,17.27
2019-04-30T11:29:41.554Z,17.20
2019-04-30T11:30:41.534Z,17.42
2019-04-30T11:31:41.579Z,17.57
2019-04-30T11:32:41.529Z,17.42
2019-04-30T11:33:41.575Z,17.27
2019-04-30T11:34:41.289Z,16.98
2019-04-30T11:35:41.273Z,16.90
2019-04-30T11:36:41.285Z,16.99
2019-04-30T11:37:41.257Z,16.99
2019-04-30T11:38:43.670Z,17.40
2019-04-30T11:39:41.245Z,17.57
2019-04-30T11:40:41.232Z,17.18
2019-04-30T11:41:41.232Z,17.32
2019-04-30T11:42:41.213Z,17.47
2019-04-30T11:43:41.261Z,17.74
2019-04-30T11:44:41.202Z,17.46
2019-04-30T11:45:41.178Z,17.43
2019-04-30T11:46:41.183Z,17.35
2019-04-30T11:47:52.896Z,17.42
2019-04-30T11:48:41.134Z,17.47
2019-04-30T11:49:41.118Z,17.35
2019-04-30T11:50:41.107Z,17.42
2019-04-30T11:51:41.109Z,17.20
2019-04-30T11:52:41.085Z,17.02
2019-04-30T11:53:41.121Z,16.87
2019-04-30T11:54:49.016Z,17.03
2019-04-30T11:55:41.049Z,17.42
2019-04-30T11:56:41.075Z,17.65
2019-04-30T11:57:41.036Z,17.83
2019-04-30T11:58:41.022Z,17.89
2019-04-30T11:59:41.015Z,17.89
2019-04-30T12:00:41.014Z,17.70
2019-04-30T12:01:40.982Z,17.76
2019-04-30T12:02:41.030Z,17.76
2019-04-30T12:03:40.973Z,17.86
2019-04-30T12:04:40.973Z,17.80
2019-04-30T12:05:40.950Z,17.71
2019-04-30T12:06:40.925Z,17.58
2019-04-30T12:07:40.945Z,17.57
2019-04-30T12:08:40.910Z,17.47
2019-04-30T12:09:40.893Z,17.53
2019-04-30T12:10:40.903Z,17.24
2019-04-30T12:11:40.948Z,17.38
2019-04-30T12:12:40.883Z,17.55
2019-04-30T12:13:40.865Z,17.84
2019-04-30T12:14:40.870Z,18.04
2019-04-30T12:15:40.851Z,18.05
2019-04-30T12:16:40.843Z,17.73
2019-04-30T12:17:40.851Z,17.71
2019-04-30T12:18:40.807Z,17.76
2019-04-30T12:19:40.785Z,18.13
2019-04-30T12:20:40.812Z,17.63
2019-04-30T12:21:40.771Z,17.70
2019-04-30T12:22:40.763Z,17.95
2019-04-30T12:23:40.750Z,18.14
2019-04-30T12:24:40.736Z,18.23
2019-04-30T12:25:41.299Z,18.23
2019-04-30T12:26:40.704Z,18.36
2019-04-30T12:27:40.719Z,18.25
2019-04-30T12:28:40.707Z,18.21
2019-04-30T12:29:40.679Z,18.01
2019-04-30T12:30:40.678Z,18.23
2019-04-30T12:31:40.673Z,18.49
2019-04-30T12:32:40.667Z,18.64
2019-04-30T12:33:40.646Z,18.78
2019-04-30T12:34:40.623Z,18.57
2019-04-30T12:35:40.616Z,18.64
2019-04-30T12:36:40.604Z,18.83
2019-04-30T12:37:40.620Z,18.99
2019-04-30T12:38:40.596Z,18.83
2019-04-30T12:39:40.595Z,18.39
2019-04-30T12:40:40.554Z,18.25
2019-04-30T12:41:40.731Z,18.20
2019-04-30T12:42:40.537Z,18.26
2019-04-30T12:43:40.556Z,18.20
2019-04-30T12:44:40.507Z,18.32
2019-04-30T12:45:40.517Z,18.19
2019-04-30T12:46:40.493Z,18.34
2019-04-30T12:47:40.485Z,18.53
2019-04-30T12:48:40.518Z,18.59
2019-04-30T12:49:40.463Z,18.42
2019-04-30T12:50:40.454Z,18.41
2019-04-30T12:51:45.820Z,18.51
2019-04-30T12:52:40.422Z,18.65
2019-04-30T12:53:40.427Z,18.50
2019-04-30T12:54:40.404Z,18.46
2019-04-30T12:55:40.411Z,18.53
2019-04-30T12:56:40.392Z,18.47
2019-04-30T12:57:40.402Z,18.51
2019-04-30T12:58:40.374Z,18.69
2019-04-30T12:59:40.365Z,18.69
2019-04-30T13:00:40.370Z,18.82
2019-04-30T13:01:40.314Z,18.68
2019-04-30T13:02:40.314Z,18.64
2019-04-30T13:03:40.327Z,18.54
2019-04-30T13:04:40.285Z,18.87
2019-04-30T13:05:40.281Z,18.94
2019-04-30T13:06:40.766Z,19.10
2019-04-30T13:07:40.860Z,19.31
2019-04-30T13:08:40.807Z,19.31
2019-04-30T13:09:41.028Z,19.35
2019-04-30T13:10:40.751Z,19.21